To NAV CANADA Home Page Login to a new session Search on AWWS site Feedback and Comments Disclaimer Vers la page française équivalente Tips FAQ What's new on the site To the Forecasts and Observations / NOTAM section To "File a Flight Plan" website Publications and other links Update of the User's profile FIC Telephone Numbers My Weather Data Folder Route Weather Data Regional Weather Data Local Weather Data To the Forecasts and Observations / NOTAM section
Request Generated 08/28/2015 at 09:24:24 UTC . Weather information available at that time is displayed.

METAR/TAF

LONDON/ON    

SPECI CYXU 280917Z 00000KT 2SM R15/3500VP6000FT/D BR SKC 08/08 A3019
RMK FG5 SLP225=
METAR CYXU 280900Z 00000KT 1 3/4SM R15/3500VP6000FT/U BR SKC 08/08
A3018 RMK FG5 SLP224=
METAR CYXU 280800Z 00000KT 1 1/2SM BR SKC 09/09 A3017 RMK FG4 SLP219=
SPECI CYXU 280747Z 00000KT 2 1/2SM R15/2800VP6000FT/U BR SKC 09/09
A3017 RMK FG4 SLP218=
METAR CYXU 280700Z 10002KT 3SM R15/3000VP6000FT/D BR SKC 09/09 A3016
RMK FG2 SLP216=

TAF AMD CYXU 280833Z 2808/2906 VRB03KT 11/2SM BR SKC TEMPO 2808/2813
6SM BR PROB30 2808/2813 1/2SM FG VV002
FM281300 23005KT P6SM FEW020
FM281600 23008KT P6SM SCT040
FM290000 23005KT P6SM FEW050 BKN250
RMK NXT FCST BY 281200Z=
Your time UTC time
Weather data provided by Environment Canada and NAV CANADA